sensor_id;sensor_type;location;lat;lon;timestamp;temperature;humidity
14014;DHT22;49110;52.584;13.408;2022-12-18T00:00:56;-1.10;99.90
14014;DHT22;49110;52.584;13.408;2022-12-18T00:01:57;-1.10;99.90
14014;DHT22;49110;52.584;13.408;2022-12-18T00:02:59;-1.10;99.90
14014;DHT22;49110;52.584;13.408;2022-12-18T00:04:03;-1.10;99.90
14014;DHT22;49110;52.584;13.408;2022-12-18T00:05:06;-1.10;99.90
14014;DHT22;49110;52.584;13.408;2022-12-18T00:06:08;-1.10;99.90
14014;DHT22;49110;52.584;13.408;2022-12-18T00:07:09;-1.10;99.90
14014;DHT22;49110;52.584;13.408;2022-12-18T00:08:09;-1.10;99.90
14014;DHT22;49110;52.584;13.408;2022-12-18T00:09:10;-1.10;99.90
14014;DHT22;49110;52.584;13.408;2022-12-18T00:10:10;-1.10;99.90
14014;DHT22;49110;52.584;13.408;2022-12-18T00:11:14;-1.20;99.90
14014;DHT22;49110;52.584;13.408;2022-12-18T00:12:15;-1.20;99.90
14014;DHT22;49110;52.584;13.408;2022-12-18T00:13:15;-1.20;99.90
14014;DHT22;49110;52.584;13.408;2022-12-18T00:14:16;-1.20;99.90
14014;DHT22;49110;52.584;13.408;2022-12-18T00:15:16;-1.20;99.90
14014;DHT22;49110;52.584;13.408;2022-12-18T00:16:19;-1.20;99.90
14014;DHT22;49110;52.584;13.408;2022-12-18T00:17:20;-1.20;99.90
14014;DHT22;49110;52.584;13.408;2022-12-18T00:18:21;-1.20;99.90
14014;DHT22;49110;52.584;13.408;2022-12-18T00:19:22;-1.20;99.90
14014;DHT22;49110;52.584;13.408;2022-12-18T00:20:22;-1.20;99.90
14014;DHT22;49110;52.584;13.408;2022-12-18T00:21:27;-1.20;99.90
14014;DHT22;49110;52.584;13.408;2022-12-18T00:22:28;-1.30;99.90
14014;DHT22;49110;52.584;13.408;2022-12-18T00:23:29;-1.30;99.90
14014;DHT22;49110;52.584;13.408;2022-12-18T00:24:30;-1.20;99.90
14014;DHT22;49110;52.584;13.408;2022-12-18T00:25:35;-1.20;99.90
14014;DHT22;49110;52.584;13.408;2022-12-18T00:26:37;-1.20;99.90
14014;DHT22;49110;52.584;13.408;2022-12-18T00:27:38;-1.30;99.90
14014;DHT22;49110;52.584;13.408;2022-12-18T00:28:38;-1.20;99.90
14014;DHT22;49110;52.584;13.408;2022-12-18T00:29:42;-1.20;99.90
14014;DHT22;49110;52.584;13.408;2022-12-18T00:30:43;-1.20;99.90
14014;DHT22;49110;52.584;13.408;2022-12-18T00:31:43;-1.20;99.90
14014;DHT22;49110;52.584;13.408;2022-12-18T00:32:44;-1.20;99.90
14014;DHT22;49110;52.584;13.408;2022-12-18T00:33:45;-1.20;99.90
14014;DHT22;49110;52.584;13.408;2022-12-18T00:34:45;-1.20;99.90
14014;DHT22;49110;52.584;13.408;2022-12-18T00:35:46;-1.20;99.90
14014;DHT22;49110;52.584;13.408;2022-12-18T00:36:47;-1.20;99.90
14014;DHT22;49110;52.584;13.408;2022-12-18T00:37:48;-1.20;99.90
14014;DHT22;49110;52.584;13.408;2022-12-18T00:38:49;-1.30;99.90
14014;DHT22;49110;52.584;13.408;2022-12-18T00:39:49;-1.30;99.90
14014;DHT22;49110;52.584;13.408;2022-12-18T00:40:50;-1.30;99.90
14014;DHT22;49110;52.584;13.408;2022-12-18T00:41:50;-1.30;99.90
14014;DHT22;49110;52.584;13.408;2022-12-18T00:43:09;-1.30;99.90
14014;DHT22;49110;52.584;13.408;2022-12-18T00:44:12;-1.30;99.90
14014;DHT22;49110;52.584;13.408;2022-12-18T00:45:13;-1.30;99.90
14014;DHT22;49110;52.584;13.408;2022-12-18T00:46:13;-1.30;99.90
14014;DHT22;49110;52.584;13.408;2022-12-18T00:47:14;-1.20;99.90
14014;DHT22;49110;52.584;13.408;2022-12-18T00:48:14;-1.20;99.90
14014;DHT22;49110;52.584;13.408;2022-12-18T00:49:17;-1.20;99.90
14014;DHT22;49110;52.584;13.408;2022-12-18T00:50:18;-1.20;99.90
14014;DHT22;49110;52.584;13.408;2022-12-18T00:51:19;-1.20;99.90
14014;DHT22;49110;52.584;13.408;2022-12-18T00:52:19;-1.20;99.90
14014;DHT22;49110;52.584;13.408;2022-12-18T00:53:20;-1.10;99.90
14014;DHT22;49110;52.584;13.408;2022-12-18T00:54:20;-1.10;99.90
14014;DHT22;49110;52.584;13.408;2022-12-18T00:55:21;-1.30;99.90
14014;DHT22;49110;52.584;13.408;2022-12-18T00:56:22;-1.30;99.90
14014;DHT22;49110;52.584;13.408;2022-12-18T00:57:23;-1.30;99.90
14014;DHT22;49110;52.584;13.408;2022-12-18T00:58:23;-1.30;99.90
14014;DHT22;49110;52.584;13.408;2022-12-18T00:59:23;-1.40;99.90
14014;DHT22;49110;52.584;13.408;2022-12-18T01:00:24;-1.60;99.90
14014;DHT22;49110;52.584;13.408;2022-12-18T01:01:25;-1.50;99.90
14014;DHT22;49110;52.584;13.408;2022-12-18T01:02:25;-1.50;99.90
14014;DHT22;49110;52.584;13.408;2022-12-18T01:03:26;-1.40;99.90
14014;DHT22;49110;52.584;13.408;2022-12-18T01:04:26;-1.50;99.90
14014;DHT22;49110;52.584;13.408;2022-12-18T01:05:27;-1.50;99.90
14014;DHT22;49110;52.584;13.408;2022-12-18T01:06:27;-1.60;99.90
14014;DHT22;49110;52.584;13.408;2022-12-18T01:07:28;-1.60;99.90
14014;DHT22;49110;52.584;13.408;2022-12-18T01:08:29;-1.50;99.90
14014;DHT22;49110;52.584;13.408;2022-12-18T01:09:29;-1.50;99.90
14014;DHT22;49110;52.584;13.408;2022-12-18T01:10:29;-1.50;99.90
14014;DHT22;49110;52.584;13.408;2022-12-18T01:11:30;-1.50;99.90
14014;DHT22;49110;52.584;13.408;2022-12-18T01:12:31;-1.50;99.90
14014;DHT22;49110;52.584;13.408;2022-12-18T01:13:35;-1.40;99.90
14014;DHT22;49110;52.584;13.408;2022-12-18T01:14:39;-1.40;99.90
14014;DHT22;49110;52.584;13.408;2022-12-18T01:15:39;-1.40;99.90
14014;DHT22;49110;52.584;13.408;2022-12-18T01:16:40;-1.60;99.90
14014;DHT22;49110;52.584;13.408;2022-12-18T01:17:41;-1.50;99.90
14014;DHT22;49110;52.584;13.408;2022-12-18T01:18:41;-1.60;99.90
14014;DHT22;49110;52.584;13.408;2022-12-18T01:19:42;-1.60;99.90
14014;DHT22;49110;52.584;13.408;2022-12-18T01:20:42;-1.60;99.90
14014;DHT22;49110;52.584;13.408;2022-12-18T01:21:43;-1.50;99.90
14014;DHT22;49110;52.584;13.408;2022-12-18T01:22:43;-1.50;99.90
14014;DHT22;49110;52.584;13.408;2022-12-18T01:23:50;-1.50;99.90
14014;DHT22;49110;52.584;13.408;2022-12-18T01:24:51;-1.50;99.90
14014;DHT22;49110;52.584;13.408;2022-12-18T01:25:51;-1.50;99.90
14014;DHT22;49110;52.584;13.408;2022-12-18T01:26:51;-1.50;99.90
14014;DHT22;49110;52.584;13.408;2022-12-18T01:27:52;-1.50;99.90
14014;DHT22;49110;52.584;13.408;2022-12-18T01:28:55;-1.50;99.90
14014;DHT22;49110;52.584;13.408;2022-12-18T01:29:56;-1.60;99.90
14014;DHT22;49110;52.584;13.408;2022-12-18T01:30:56;-1.60;99.90
14014;DHT22;49110;52.584;13.408;2022-12-18T01:31:57;-1.50;99.90
14014;DHT22;49110;52.584;13.408;2022-12-18T01:32:58;-1.50;99.90
14014;DHT22;49110;52.584;13.408;2022-12-18T01:34:00;-1.50;99.90
14014;DHT22;49110;52.584;13.408;2022-12-18T01:35:02;-1.50;99.90
14014;DHT22;49110;52.584;13.408;2022-12-18T01:36:02;-1.50;99.90
14014;DHT22;49110;52.584;13.408;2022-12-18T01:37:04;-1.50;99.90
14014;DHT22;49110;52.584;13.408;2022-12-18T01:38:04;-1.40;99.90
14014;DHT22;49110;52.584;13.408;2022-12-18T01:39:11;-1.40;99.90
14014;DHT22;49110;52.584;13.408;2022-12-18T01:40:12;-1.50;99.90
14014;DHT22;49110;52.584;13.408;2022-12-18T01:41:14;-1.40;99.90
14014;DHT22;49110;52.584;13.408;2022-12-18T01:42:15;-1.40;99.90
14014;DHT22;49110;52.584;13.408;2022-12-18T01:43:15;-1.40;99.90
14014;DHT22;49110;52.584;13.408;2022-12-18T01:44:54;-1.40;99.90
14014;DHT22;49110;52.584;13.408;2022-12-18T01:45:59;-1.40;99.90
14014;DHT22;49110;52.584;13.408;2022-12-18T01:47:00;-1.40;99.90
14014;DHT22;49110;52.584;13.408;2022-12-18T01:48:02;-1.40;99.90
14014;DHT22;49110;52.584;13.408;2022-12-18T01:49:03;-1.40;99.90
14014;DHT22;49110;52.584;13.408;2022-12-18T01:50:10;-1.50;99.90
14014;DHT22;49110;52.584;13.408;2022-12-18T01:51:12;-1.50;99.90
14014;DHT22;49110;52.584;13.408;2022-12-18T01:52:13;-1.50;99.90
14014;DHT22;49110;52.584;13.408;2022-12-18T01:53:21;-1.50;99.90
14014;DHT22;49110;52.584;13.408;2022-12-18T01:54:22;-1.60;99.90
14014;DHT22;49110;52.584;13.408;2022-12-18T01:55:26;-1.60;99.90
14014;DHT22;49110;52.584;13.408;2022-12-18T01:56:27;-1.60;99.90
14014;DHT22;49110;52.584;13.408;2022-12-18T01:57:28;-1.60;99.90
14014;DHT22;49110;52.584;13.408;2022-12-18T01:59:00;-1.60;99.90
14014;DHT22;49110;52.584;13.408;2022-12-18T02:00:07;-1.60;99.90
14014;DHT22;49110;52.584;13.408;2022-12-18T02:01:09;-1.70;99.90
14014;DHT22;49110;52.584;13.408;2022-12-18T02:02:09;-1.80;99.90
14014;DHT22;49110;52.584;13.408;2022-12-18T02:03:10;-1.70;99.90
14014;DHT22;49110;52.584;13.408;2022-12-18T02:04:24;-1.70;99.90
14014;DHT22;49110;52.584;13.408;2022-12-18T02:05:45;-1.70;99.90
14014;DHT22;49110;52.584;13.408;2022-12-18T02:06:51;-1.70;99.90
14014;DHT22;49110;52.584;13.408;2022-12-18T02:09:13;-1.70;99.90
14014;DHT22;49110;52.584;13.408;2022-12-18T02:11:50;-1.60;99.90
14014;DHT22;49110;52.584;13.408;2022-12-18T02:12:57;-1.60;99.90
14014;DHT22;49110;52.584;13.408;2022-12-18T02:14:17;-1.60;99.90
14014;DHT22;49110;52.584;13.408;2022-12-18T02:15:25;-1.70;99.90
14014;DHT22;49110;52.584;13.408;2022-12-18T02:16:43;-1.80;99.90
14014;DHT22;49110;52.584;13.408;2022-12-18T02:18:10;-1.80;99.90
14014;DHT22;49110;52.584;13.408;2022-12-18T02:19:28;-1.90;99.90
14014;DHT22;49110;52.584;13.408;2022-12-18T02:20:38;-1.80;99.90
14014;DHT22;49110;52.584;13.408;2022-12-18T02:21:55;-1.90;99.90
14014;DHT22;49110;52.584;13.408;2022-12-18T02:24:33;-2.00;99.90
14014;DHT22;49110;52.584;13.408;2022-12-18T02:25:40;-2.00;99.90
14014;DHT22;49110;52.584;13.408;2022-12-18T02:26:51;-1.90;99.90
14014;DHT22;49110;52.584;13.408;2022-12-18T02:27:55;-1.90;99.90
14014;DHT22;49110;52.584;13.408;2022-12-18T02:29:10;-2.00;99.90
14014;DHT22;49110;52.584;13.408;2022-12-18T02:30:12;-1.90;99.90
14014;DHT22;49110;52.584;13.408;2022-12-18T02:31:19;-2.00;99.90
14014;DHT22;49110;52.584;13.408;2022-12-18T02:32:27;-2.00;99.90
14014;DHT22;49110;52.584;13.408;2022-12-18T02:33:29;-2.00;99.90
14014;DHT22;49110;52.584;13.408;2022-12-18T02:34:33;-2.00;99.90
14014;DHT22;49110;52.584;13.408;2022-12-18T02:35:38;-2.00;99.90
14014;DHT22;49110;52.584;13.408;2022-12-18T02:36:41;-2.10;99.90
14014;DHT22;49110;52.584;13.408;2022-12-18T02:37:45;-2.10;99.90
14014;DHT22;49110;52.584;13.408;2022-12-18T02:38:47;-2.10;99.90
14014;DHT22;49110;52.584;13.408;2022-12-18T02:39:49;-1.90;99.90
14014;DHT22;49110;52.584;13.408;2022-12-18T02:40:53;-1.80;99.90
14014;DHT22;49110;52.584;13.408;2022-12-18T02:41:55;-1.70;99.90
14014;DHT22;49110;52.584;13.408;2022-12-18T02:43:06;-1.70;99.90
14014;DHT22;49110;52.584;13.408;2022-12-18T02:44:09;-1.70;99.90
14014;DHT22;49110;52.584;13.408;2022-12-18T02:45:10;-1.70;99.90
14014;DHT22;49110;52.584;13.408;2022-12-18T02:46:26;-1.60;99.90
14014;DHT22;49110;52.584;13.408;2022-12-18T02:47:31;-1.60;99.90
14014;DHT22;49110;52.584;13.408;2022-12-18T02:48:34;-1.70;99.90
14014;DHT22;49110;52.584;13.408;2022-12-18T02:51:14;-1.70;99.90
14014;DHT22;49110;52.584;13.408;2022-12-18T02:52:49;-1.80;99.90
14014;DHT22;49110;52.584;13.408;2022-12-18T02:54:02;-1.80;99.90
14014;DHT22;49110;52.584;13.408;2022-12-18T02:55:09;-1.80;99.90
14014;DHT22;49110;52.584;13.408;2022-12-18T02:56:20;-1.80;99.90
14014;DHT22;49110;52.584;13.408;2022-12-18T02:57:54;-1.80;99.90
14014;DHT22;49110;52.584;13.408;2022-12-18T02:59:09;-1.80;99.90
14014;DHT22;49110;52.584;13.408;2022-12-18T03:00:17;-1.80;99.90
14014;DHT22;49110;52.584;13.408;2022-12-18T03:01:34;-1.80;99.90
14014;DHT22;49110;52.584;13.408;2022-12-18T03:02:41;-1.80;99.90
14014;DHT22;49110;52.584;13.408;2022-12-18T03:03:57;-1.80;99.90
14014;DHT22;49110;52.584;13.408;2022-12-18T03:05:08;-1.80;99.90
14014;DHT22;49110;52.584;13.408;2022-12-18T03:06:24;-1.80;99.90
14014;DHT22;49110;52.584;13.408;2022-12-18T03:07:40;-1.70;99.90
14014;DHT22;49110;52.584;13.408;2022-12-18T03:08:46;-1.70;99.90
14014;DHT22;49110;52.584;13.408;2022-12-18T03:09:51;-1.70;99.90
14014;DHT22;49110;52.584;13.408;2022-12-18T03:10:58;-1.70;99.90
14014;DHT22;49110;52.584;13.408;2022-12-18T03:12:10;-1.70;99.90
14014;DHT22;49110;52.584;13.408;2022-12-18T03:13:37;-1.70;99.90
14014;DHT22;49110;52.584;13.408;2022-12-18T03:14:40;-1.70;99.90
14014;DHT22;49110;52.584;13.408;2022-12-18T03:15:45;-1.70;99.90
14014;DHT22;49110;52.584;13.408;2022-12-18T03:16:49;-1.70;99.90
14014;DHT22;49110;52.584;13.408;2022-12-18T03:18:05;-1.80;99.90
14014;DHT22;49110;52.584;13.408;2022-12-18T03:19:12;-1.90;99.90
14014;DHT22;49110;52.584;13.408;2022-12-18T03:20:18;-1.90;99.90
14014;DHT22;49110;52.584;13.408;2022-12-18T03:21:23;-1.90;99.90
14014;DHT22;49110;52.584;13.408;2022-12-18T03:22:30;-1.90;99.90
14014;DHT22;49110;52.584;13.408;2022-12-18T03:23:43;-1.90;99.90
14014;DHT22;49110;52.584;13.408;2022-12-18T03:24:46;-1.80;99.90
14014;DHT22;49110;52.584;13.408;2022-12-18T03:25:48;-1.80;99.90
14014;DHT22;49110;52.584;13.408;2022-12-18T03:26:58;-1.80;99.90
14014;DHT22;49110;52.584;13.408;2022-12-18T03:28:02;-1.80;99.90
14014;DHT22;49110;52.584;13.408;2022-12-18T03:29:07;-1.80;99.90
14014;DHT22;49110;52.584;13.408;2022-12-18T03:30:12;-1.70;99.90
14014;DHT22;49110;52.584;13.408;2022-12-18T03:31:14;-1.70;99.90
14014;DHT22;49110;52.584;13.408;2022-12-18T03:32:47;-1.70;99.90
14014;DHT22;49110;52.584;13.408;2022-12-18T03:33:55;-1.70;99.90
14014;DHT22;49110;52.584;13.408;2022-12-18T03:34:59;-1.80;99.90
14014;DHT22;49110;52.584;13.408;2022-12-18T03:36:01;-1.80;99.90
14014;DHT22;49110;52.584;13.408;2022-12-18T03:37:02;-1.80;99.90
14014;DHT22;49110;52.584;13.408;2022-12-18T03:38:03;-1.80;99.90
14014;DHT22;49110;52.584;13.408;2022-12-18T03:39:04;-1.90;99.90
14014;DHT22;49110;52.584;13.408;2022-12-18T03:40:05;-1.90;99.90
14014;DHT22;49110;52.584;13.408;2022-12-18T03:41:28;-1.90;99.90
14014;DHT22;49110;52.584;13.408;2022-12-18T03:42:52;-1.90;99.90
14014;DHT22;49110;52.584;13.408;2022-12-18T03:44:08;-1.90;99.90
14014;DHT22;49110;52.584;13.408;2022-12-18T03:45:22;-1.90;99.90
14014;DHT22;49110;52.584;13.408;2022-12-18T03:46:30;-1.80;99.90
14014;DHT22;49110;52.584;13.408;2022-12-18T03:47:58;-1.80;99.90
14014;DHT22;49110;52.584;13.408;2022-12-18T03:49:08;-1.80;99.90
14014;DHT22;49110;52.584;13.408;2022-12-18T03:50:37;-1.80;99.90
14014;DHT22;49110;52.584;13.408;2022-12-18T03:51:43;-1.80;99.90
14014;DHT22;49110;52.584;13.408;2022-12-18T03:53:07;-1.80;99.90
14014;DHT22;49110;52.584;13.408;2022-12-18T03:54:10;-1.80;99.90
14014;DHT22;49110;52.584;13.408;2022-12-18T03:55:12;-1.80;99.90
14014;DHT22;49110;52.584;13.408;2022-12-18T03:56:14;-1.80;99.90
14014;DHT22;49110;52.584;13.408;2022-12-18T03:57:19;-1.80;99.90
14014;DHT22;49110;52.584;13.408;2022-12-18T03:58:24;-1.80;99.90
14014;DHT22;49110;52.584;13.408;2022-12-18T03:59:26;-1.90;99.90
14014;DHT22;49110;52.584;13.408;2022-12-18T04:00:28;-2.10;99.90
14014;DHT22;49110;52.584;13.408;2022-12-18T04:01:35;-2.20;99.90
14014;DHT22;49110;52.584;13.408;2022-12-18T04:02:41;-2.10;99.90
14014;DHT22;49110;52.584;13.408;2022-12-18T04:03:44;-2.10;99.90
14014;DHT22;49110;52.584;13.408;2022-12-18T04:04:47;-2.10;99.90
14014;DHT22;49110;52.584;13.408;2022-12-18T04:05:51;-2.10;99.90
14014;DHT22;49110;52.584;13.408;2022-12-18T04:06:53;-2.20;99.90
14014;DHT22;49110;52.584;13.408;2022-12-18T04:07:54;-2.20;99.90
14014;DHT22;49110;52.584;13.408;2022-12-18T04:08:57;-2.10;99.90
14014;DHT22;49110;52.584;13.408;2022-12-18T04:09:59;-2.00;99.90
14014;DHT22;49110;52.584;13.408;2022-12-18T04:11:02;-2.00;99.90
14014;DHT22;49110;52.584;13.408;2022-12-18T04:12:02;-1.90;99.90
14014;DHT22;49110;52.584;13.408;2022-12-18T04:13:03;-1.90;99.90
14014;DHT22;49110;52.584;13.408;2022-12-18T04:14:03;-1.90;99.90
14014;DHT22;49110;52.584;13.408;2022-12-18T04:15:05;-1.90;99.90
14014;DHT22;49110;52.584;13.408;2022-12-18T04:16:06;-2.00;99.90
14014;DHT22;49110;52.584;13.408;2022-12-18T04:17:07;-2.00;99.90
14014;DHT22;49110;52.584;13.408;2022-12-18T04:18:07;-2.00;99.90
14014;DHT22;49110;52.584;13.408;2022-12-18T04:19:08;-1.90;99.90
14014;DHT22;49110;52.584;13.408;2022-12-18T04:20:08;-1.90;99.90
14014;DHT22;49110;52.584;13.408;2022-12-18T04:21:10;-1.90;99.90
14014;DHT22;49110;52.584;13.408;2022-12-18T04:22:10;-1.90;99.90
14014;DHT22;49110;52.584;13.408;2022-12-18T04:23:11;-1.90;99.90
14014;DHT22;49110;52.584;13.408;2022-12-18T04:24:12;-2.00;99.90
14014;DHT22;49110;52.584;13.408;2022-12-18T04:25:12;-2.20;99.90
14014;DHT22;49110;52.584;13.408;2022-12-18T04:26:13;-2.20;99.90
14014;DHT22;49110;52.584;13.408;2022-12-18T04:27:13;-2.30;99.90
14014;DHT22;49110;52.584;13.408;2022-12-18T04:28:14;-2.30;99.90
14014;DHT22;49110;52.584;13.408;2022-12-18T04:29:14;-2.30;99.90
14014;DHT22;49110;52.584;13.408;2022-12-18T04:30:15;-2.20;99.90
14014;DHT22;49110;52.584;13.408;2022-12-18T04:31:15;-2.20;99.90
14014;DHT22;49110;52.584;13.408;2022-12-18T04:32:16;-2.20;99.90
14014;DHT22;49110;52.584;13.408;2022-12-18T04:33:16;-2.10;99.90
14014;DHT22;49110;52.584;13.408;2022-12-18T04:34:17;-2.10;99.90
14014;DHT22;49110;52.584;13.408;2022-12-18T04:35:17;-2.10;99.90
14014;DHT22;49110;52.584;13.408;2022-12-18T04:36:18;-2.10;99.90
14014;DHT22;49110;52.584;13.408;2022-12-18T04:37:18;-2.10;99.90
14014;DHT22;49110;52.584;13.408;2022-12-18T04:38:19;-2.10;99.90
14014;DHT22;49110;52.584;13.408;2022-12-18T04:39:19;-2.10;99.90
14014;DHT22;49110;52.584;13.408;2022-12-18T04:40:20;-2.10;99.90
14014;DHT22;49110;52.584;13.408;2022-12-18T04:41:20;-2.20;99.90
14014;DHT22;49110;52.584;13.408;2022-12-18T04:42:21;-2.20;99.90
14014;DHT22;49110;52.584;13.408;2022-12-18T04:43:22;-2.20;99.90
14014;DHT22;49110;52.584;13.408;2022-12-18T04:44:22;-2.10;99.90
14014;DHT22;49110;52.584;13.408;2022-12-18T04:45:23;-2.10;99.90
14014;DHT22;49110;52.584;13.408;2022-12-18T04:46:23;-2.10;99.90
14014;DHT22;49110;52.584;13.408;2022-12-18T04:47:24;-2.20;99.90
14014;DHT22;49110;52.584;13.408;2022-12-18T04:48:24;-2.20;99.90
14014;DHT22;49110;52.584;13.408;2022-12-18T04:49:24;-2.20;99.90
14014;DHT22;49110;52.584;13.408;2022-12-18T04:50:25;-2.10;99.90
14014;DHT22;49110;52.584;13.408;2022-12-18T04:51:25;-2.10;99.90
14014;DHT22;49110;52.584;13.408;2022-12-18T04:52:26;-2.10;99.90
14014;DHT22;49110;52.584;13.408;2022-12-18T04:53:27;-2.10;99.90
14014;DHT22;49110;52.584;13.408;2022-12-18T04:54:27;-2.10;99.90
14014;DHT22;49110;52.584;13.408;2022-12-18T04:55:28;-2.10;99.90
14014;DHT22;49110;52.584;13.408;2022-12-18T04:56:31;-2.10;99.90
14014;DHT22;49110;52.584;13.408;2022-12-18T04:57:31;-2.00;99.90
14014;DHT22;49110;52.584;13.408;2022-12-18T04:58:32;-2.10;99.90
14014;DHT22;49110;52.584;13.408;2022-12-18T04:59:32;-2.00;99.90
14014;DHT22;49110;52.584;13.408;2022-12-18T05:00:33;-2.00;99.90
14014;DHT22;49110;52.584;13.408;2022-12-18T05:01:33;-2.00;99.90
14014;DHT22;49110;52.584;13.408;2022-12-18T05:02:34;-2.00;99.90
14014;DHT22;49110;52.584;13.408;2022-12-18T05:03:35;-2.00;99.90
14014;DHT22;49110;52.584;13.408;2022-12-18T05:04:36;-1.90;99.90
14014;DHT22;49110;52.584;13.408;2022-12-18T05:05:37;-1.90;99.90
14014;DHT22;49110;52.584;13.408;2022-12-18T05:06:37;-1.90;99.90
14014;DHT22;49110;52.584;13.408;2022-12-18T05:07:38;-1.80;99.90
14014;DHT22;49110;52.584;13.408;2022-12-18T05:08:38;-1.90;99.90
14014;DHT22;49110;52.584;13.408;2022-12-18T05:09:39;-1.90;99.90
14014;DHT22;49110;52.584;13.408;2022-12-18T05:10:39;-1.90;99.90
14014;DHT22;49110;52.584;13.408;2022-12-18T05:11:40;-1.90;99.90
14014;DHT22;49110;52.584;13.408;2022-12-18T05:12:40;-1.90;99.90
14014;DHT22;49110;52.584;13.408;2022-12-18T05:13:58;-2.00;99.90
14014;DHT22;49110;52.584;13.408;2022-12-18T05:14:58;-2.20;99.90
14014;DHT22;49110;52.584;13.408;2022-12-18T05:15:59;-2.20;99.90
14014;DHT22;49110;52.584;13.408;2022-12-18T05:17:00;-2.20;99.90
14014;DHT22;49110;52.584;13.408;2022-12-18T05:18:01;-2.10;99.90
14014;DHT22;49110;52.584;13.408;2022-12-18T05:19:02;-2.10;99.90
14014;DHT22;49110;52.584;13.408;2022-12-18T05:20:02;-2.10;99.90
14014;DHT22;49110;52.584;13.408;2022-12-18T05:21:03;-2.10;99.90
14014;DHT22;49110;52.584;13.408;2022-12-18T05:22:07;-2.10;99.90
14014;DHT22;49110;52.584;13.408;2022-12-18T05:23:08;-2.10;99.90
14014;DHT22;49110;52.584;13.408;2022-12-18T05:24:08;-2.10;99.90
14014;DHT22;49110;52.584;13.408;2022-12-18T05:25:09;-2.10;99.90
14014;DHT22;49110;52.584;13.408;2022-12-18T05:26:15;-2.20;99.90
14014;DHT22;49110;52.584;13.408;2022-12-18T05:27:16;-2.30;99.90
14014;DHT22;49110;52.584;13.408;2022-12-18T05:28:16;-2.30;99.90
14014;DHT22;49110;52.584;13.408;2022-12-18T05:29:17;-2.40;99.90
14014;DHT22;49110;52.584;13.408;2022-12-18T05:30:17;-2.40;99.90
14014;DHT22;49110;52.584;13.408;2022-12-18T05:31:18;-2.30;99.90
14014;DHT22;49110;52.584;13.408;2022-12-18T05:32:18;-2.30;99.90
14014;DHT22;49110;52.584;13.408;2022-12-18T05:33:20;-2.30;99.90
14014;DHT22;49110;52.584;13.408;2022-12-18T05:34:20;-2.30;99.90
14014;DHT22;49110;52.584;13.408;2022-12-18T05:35:21;-2.30;99.90
14014;DHT22;49110;52.584;13.408;2022-12-18T05:36:21;-2.20;99.90
14014;DHT22;49110;52.584;13.408;2022-12-18T05:37:22;-2.30;99.90
14014;DHT22;49110;52.584;13.408;2022-12-18T05:38:24;-2.30;99.90
14014;DHT22;49110;52.584;13.408;2022-12-18T05:39:25;-2.40;99.90
14014;DHT22;49110;52.584;13.408;2022-12-18T05:40:25;-2.40;99.90
14014;DHT22;49110;52.584;13.408;2022-12-18T05:41:26;-2.40;99.90
14014;DHT22;49110;52.584;13.408;2022-12-18T05:42:27;-2.40;99.90
14014;DHT22;49110;52.584;13.408;2022-12-18T05:43:27;-2.30;99.90
14014;DHT22;49110;52.584;13.408;2022-12-18T05:44:28;-2.30;99.90
14014;DHT22;49110;52.584;13.408;2022-12-18T05:45:29;-2.30;99.90
14014;DHT22;49110;52.584;13.408;2022-12-18T05:46:29;-2.40;99.90
14014;DHT22;49110;52.584;13.408;2022-12-18T05:47:30;-2.40;99.90
14014;DHT22;49110;52.584;13.408;2022-12-18T05:48:30;-2.40;99.90
14014;DHT22;49110;52.584;13.408;2022-12-18T05:49:31;-2.40;99.90
14014;DHT22;49110;52.584;13.408;2022-12-18T05:50:37;-2.40;99.90
14014;DHT22;49110;52.584;13.408;2022-12-18T05:51:38;-2.50;99.90
14014;DHT22;49110;52.584;13.408;2022-12-18T05:52:38;-2.40;99.90
14014;DHT22;49110;52.584;13.408;2022-12-18T05:53:39;-2.40;99.90
14014;DHT22;49110;52.584;13.408;2022-12-18T05:54:39;-2.50;99.90
14014;DHT22;49110;52.584;13.408;2022-12-18T05:55:41;-2.50;99.90
14014;DHT22;49110;52.584;13.408;2022-12-18T05:56:42;-2.50;99.90
14014;DHT22;49110;52.584;13.408;2022-12-18T05:57:42;-2.50;99.90
14014;DHT22;49110;52.584;13.408;2022-12-18T05:58:43;-2.50;99.90
14014;DHT22;49110;52.584;13.408;2022-12-18T05:59:43;-2.40;99.90
14014;DHT22;49110;52.584;13.408;2022-12-18T06:00:46;-2.30;99.90
14014;DHT22;49110;52.584;13.408;2022-12-18T06:01:46;-2.30;99.90
14014;DHT22;49110;52.584;13.408;2022-12-18T06:02:47;-2.30;99.90
14014;DHT22;49110;52.584;13.408;2022-12-18T06:03:48;-2.30;99.90
14014;DHT22;49110;52.584;13.408;2022-12-18T06:04:48;-2.30;99.90
14014;DHT22;49110;52.584;13.408;2022-12-18T06:05:49;-2.20;99.90
14014;DHT22;49110;52.584;13.408;2022-12-18T06:06:49;-2.20;99.90
14014;DHT22;49110;52.584;13.408;2022-12-18T06:07:50;-2.20;99.90
14014;DHT22;49110;52.584;13.408;2022-12-18T06:08:51;-2.20;99.90
14014;DHT22;49110;52.584;13.408;2022-12-18T06:09:51;-2.10;99.90
14014;DHT22;49110;52.584;13.408;2022-12-18T06:10:52;-2.10;99.90
14014;DHT22;49110;52.584;13.408;2022-12-18T06:11:53;-2.10;99.90
14014;DHT22;49110;52.584;13.408;2022-12-18T06:12:53;-2.10;99.90
14014;DHT22;49110;52.584;13.408;2022-12-18T06:13:55;-2.10;99.90
14014;DHT22;49110;52.584;13.408;2022-12-18T06:14:56;-2.20;99.90
14014;DHT22;49110;52.584;13.408;2022-12-18T06:15:56;-2.10;99.90
14014;DHT22;49110;52.584;13.408;2022-12-18T06:16:57;-2.10;99.90
14014;DHT22;49110;52.584;13.408;2022-12-18T06:30:51;-2.40;99.90
14014;DHT22;49110;52.584;13.408;2022-12-18T06:31:53;-2.30;99.90
14014;DHT22;49110;52.584;13.408;2022-12-18T06:32:53;-2.30;99.90
14014;DHT22;49110;52.584;13.408;2022-12-18T06:33:54;-2.30;99.90
14014;DHT22;49110;52.584;13.408;2022-12-18T06:34:54;-2.30;99.90
14014;DHT22;49110;52.584;13.408;2022-12-18T06:36:09;-2.30;99.90
14014;DHT22;49110;52.584;13.408;2022-12-18T06:37:10;-2.30;99.90
14014;DHT22;49110;52.584;13.408;2022-12-18T06:38:10;-2.30;99.90
14014;DHT22;49110;52.584;13.408;2022-12-18T06:39:11;-2.40;99.90
14014;DHT22;49110;52.584;13.408;2022-12-18T06:40:11;-2.30;99.90
14014;DHT22;49110;52.584;13.408;2022-12-18T06:41:15;-2.30;99.90
14014;DHT22;49110;52.584;13.408;2022-12-18T06:42:15;-2.30;99.90
14014;DHT22;49110;52.584;13.408;2022-12-18T06:43:16;-2.30;99.90
14014;DHT22;49110;52.584;13.408;2022-12-18T06:44:16;-2.30;99.90
14014;DHT22;49110;52.584;13.408;2022-12-18T06:45:17;-2.30;99.90
14014;DHT22;49110;52.584;13.408;2022-12-18T06:46:17;-2.20;99.90
14014;DHT22;49110;52.584;13.408;2022-12-18T06:47:18;-2.20;99.90
14014;DHT22;49110;52.584;13.408;2022-12-18T06:48:21;-2.20;99.90
14014;DHT22;49110;52.584;13.408;2022-12-18T06:49:22;-2.20;99.90
14014;DHT22;49110;52.584;13.408;2022-12-18T06:50:22;-2.20;99.90
14014;DHT22;49110;52.584;13.408;2022-12-18T06:51:24;-2.20;99.90
14014;DHT22;49110;52.584;13.408;2022-12-18T06:52:24;-2.30;99.90
14014;DHT22;49110;52.584;13.408;2022-12-18T06:53:25;-2.40;99.90
14014;DHT22;49110;52.584;13.408;2022-12-18T06:54:25;-2.40;99.90